createdAt,value
2022-09-23T00:00:30.993Z,6.80
2022-09-23T00:03:00.034Z,7.90
2022-09-23T00:05:31.147Z,7.20
2022-09-23T00:08:00.638Z,5.08
2022-09-23T00:10:31.226Z,7.15
2022-09-23T00:13:02.630Z,5.87
2022-09-23T00:15:33.982Z,6.00
2022-09-23T00:18:03.745Z,6.05
2022-09-23T00:20:36.128Z,8.50
2022-09-23T00:23:07.212Z,6.80
2022-09-23T00:25:37.094Z,5.12
2022-09-23T00:28:06.319Z,7.53
2022-09-23T00:30:36.020Z,6.25
2022-09-23T00:33:04.969Z,7.28
2022-09-23T00:35:33.843Z,6.12
2022-09-23T00:38:02.882Z,4.53
2022-09-23T00:40:32.404Z,5.53
2022-09-23T00:43:01.769Z,6.33
2022-09-23T00:45:32.346Z,5.62
2022-09-23T00:48:02.815Z,5.37
2022-09-23T00:50:38.282Z,6.03
2022-09-23T00:53:11.580Z,8.05
2022-09-23T00:55:46.162Z,6.33
2022-09-23T00:58:18.529Z,5.90
2022-09-23T01:00:47.507Z,6.15
2022-09-23T01:03:16.498Z,6.22
2022-09-23T01:05:45.388Z,6.28
2022-09-23T01:08:14.369Z,6.87
2022-09-23T01:11:11.577Z,7.47
2022-09-23T01:14:06.966Z,8.43
2022-09-23T01:16:56.508Z,6.97
2022-09-23T01:19:43.392Z,6.12
2022-09-23T01:22:27.391Z,5.50
2022-09-23T01:25:01.882Z,6.10
2022-09-23T01:27:52.478Z,5.55
2022-09-23T01:30:46.930Z,5.55
2022-09-23T01:33:33.429Z,6.28
2022-09-23T01:36:19.105Z,6.72
2022-09-23T01:39:29.486Z,6.40
2022-09-23T01:42:35.675Z,10.03
2022-09-23T01:45:15.944Z,7.35
2022-09-23T01:47:54.860Z,6.83
2022-09-23T01:50:47.196Z,6.22
2022-09-23T01:53:37.990Z,7.10
2022-09-23T01:56:14.942Z,7.12
2022-09-23T01:59:02.193Z,5.85
2022-09-23T02:01:42.533Z,6.17
2022-09-23T02:04:30.571Z,7.00
2022-09-23T02:07:05.269Z,8.78
2022-09-23T02:09:42.711Z,6.42
2022-09-23T02:12:17.364Z,7.30
2022-09-23T02:15:07.404Z,6.12
2022-09-23T02:17:48.329Z,6.33
2022-09-23T02:20:22.149Z,6.65
2022-09-23T02:23:06.303Z,6.90
2022-09-23T02:26:00.261Z,4.95
2022-09-23T02:28:46.921Z,5.95
2022-09-23T02:31:39.212Z,6.25
2022-09-23T02:34:37.255Z,6.20
2022-09-23T02:37:29.594Z,6.12
2022-09-23T02:40:15.670Z,6.33
2022-09-23T02:43:08.056Z,7.53
2022-09-23T02:45:39.343Z,6.65
2022-09-23T02:48:22.171Z,6.22
2022-09-23T02:50:51.693Z,5.90
2022-09-23T02:53:23.730Z,6.35
2022-09-23T02:55:52.449Z,6.33
2022-09-23T02:58:21.318Z,6.92
2022-09-23T03:01:07.796Z,7.92
2022-09-23T03:04:11.392Z,5.70
2022-09-23T03:07:30.209Z,5.97
2022-09-23T03:10:15.189Z,6.05
2022-09-23T03:13:10.446Z,6.03
2022-09-23T03:16:24.884Z,9.48
2022-09-23T03:19:17.407Z,8.85
2022-09-23T03:22:02.314Z,7.60
2022-09-23T03:24:32.593Z,8.35
2022-09-23T03:27:08.850Z,6.22
2022-09-23T03:29:38.517Z,7.15
2022-09-23T03:32:08.484Z,9.63
2022-09-23T03:34:39.314Z,6.05
2022-09-23T03:37:31.989Z,9.35
2022-09-23T03:40:23.606Z,9.08
2022-09-23T03:42:53.337Z,7.40
2022-09-23T03:45:26.483Z,9.30
2022-09-23T03:47:56.024Z,5.72
2022-09-23T03:50:25.085Z,9.28
2022-09-23T03:52:54.404Z,11.75
2022-09-23T03:55:24.740Z,11.80
2022-09-23T03:57:53.530Z,8.23
2022-09-23T04:00:23.328Z,8.03
2022-09-23T04:02:53.347Z,6.85
2022-09-23T04:05:22.186Z,6.58
2022-09-23T04:07:52.026Z,5.40
2022-09-23T04:10:21.081Z,6.30
2022-09-23T04:12:50.297Z,7.30
2022-09-23T04:15:19.693Z,6.03
2022-09-23T04:17:49.501Z,5.28
2022-09-23T04:20:18.828Z,6.92
2022-09-23T04:22:47.919Z,6.92
2022-09-23T04:25:17.307Z,8.30
2022-09-23T04:27:46.339Z,7.62
2022-09-23T04:30:15.574Z,5.42
2022-09-23T04:32:44.544Z,8.90
2022-09-23T04:35:14.381Z,8.30
2022-09-23T04:37:43.778Z,7.67
2022-09-23T04:40:15.491Z,14.28
2022-09-23T04:42:45.051Z,8.90
2022-09-23T04:45:15.561Z,7.42
2022-09-23T04:47:45.588Z,8.58
2022-09-23T04:50:16.424Z,7.50
2022-09-23T04:52:45.845Z,6.50
2022-09-23T04:55:14.718Z,8.58
2022-09-23T04:57:44.251Z,7.92
2022-09-23T05:00:15.071Z,8.50
2022-09-23T05:02:46.331Z,8.13
2022-09-23T05:05:18.236Z,10.03
2022-09-23T05:07:51.877Z,11.57
2022-09-23T05:10:22.612Z,8.08
2022-09-23T05:12:56.932Z,9.73
2022-09-23T05:15:23.186Z,11.18
2022-09-23T05:17:52.919Z,13.93
2022-09-23T05:20:22.160Z,9.43
2022-09-23T05:22:53.463Z,7.25
2022-09-23T05:25:23.658Z,9.68
2022-09-23T05:27:52.977Z,7.87
2022-09-23T05:30:22.658Z,12.68
2022-09-23T05:32:52.374Z,7.78
2022-09-23T05:35:21.866Z,8.23
2022-09-23T05:37:52.882Z,13.68
2022-09-23T05:40:21.947Z,10.80
2022-09-23T05:42:51.103Z,7.90
2022-09-23T05:45:21.564Z,6.78
2022-09-23T05:47:50.427Z,7.87
2022-09-23T05:50:19.366Z,6.65
2022-09-23T05:52:48.764Z,12.28
2022-09-23T05:55:18.119Z,8.00
2022-09-23T05:57:47.193Z,7.30
2022-09-23T06:00:17.133Z,8.53
2022-09-23T06:02:48.973Z,7.00
2022-09-23T06:05:18.425Z,7.08
2022-09-23T06:07:48.314Z,12.07
2022-09-23T06:10:17.313Z,6.72
2022-09-23T06:12:46.752Z,11.48
2022-09-23T06:15:17.191Z,6.72
2022-09-23T06:17:48.509Z,6.33
2022-09-23T06:20:17.922Z,5.85
2022-09-23T06:22:51.913Z,8.15
2022-09-23T06:25:19.402Z,6.62
2022-09-23T06:27:55.319Z,6.25
2022-09-23T06:30:26.273Z,7.58
2022-09-23T06:32:57.649Z,7.78
2022-09-23T06:35:27.952Z,21.57
2022-09-23T06:37:57.809Z,10.90
2022-09-23T06:40:26.785Z,24.27
2022-09-23T06:43:02.587Z,12.07
2022-09-23T06:45:34.053Z,12.47
2022-09-23T06:48:05.259Z,10.85
2022-09-23T06:50:34.401Z,11.28
2022-09-23T06:53:03.813Z,17.98
2022-09-23T06:55:34.863Z,9.80
2022-09-23T06:58:04.295Z,8.83
2022-09-23T07:00:34.894Z,9.85
2022-09-23T07:03:08.566Z,10.00
2022-09-23T07:05:38.573Z,13.95
2022-09-23T07:08:11.514Z,10.50
2022-09-23T07:10:41.225Z,10.60
2022-09-23T07:13:15.541Z,11.20
2022-09-23T07:15:42.097Z,8.43
2022-09-23T07:18:12.705Z,18.02
2022-09-23T07:20:42.301Z,9.65
2022-09-23T07:23:11.307Z,9.98
2022-09-23T07:25:42.870Z,8.43
2022-09-23T07:28:12.165Z,7.72
2022-09-23T07:30:51.446Z,7.50
2022-09-23T07:33:25.599Z,9.85
2022-09-23T07:35:43.954Z,8.38
2022-09-23T07:38:13.331Z,10.20
2022-09-23T07:40:45.418Z,13.93
2022-09-23T07:43:14.751Z,11.18
2022-09-23T07:45:45.418Z,10.88
2022-09-23T07:48:15.549Z,8.35
2022-09-23T07:50:45.007Z,8.30
2022-09-23T07:53:15.423Z,6.37
2022-09-23T07:55:54.024Z,5.72
2022-09-23T07:58:23.469Z,5.83
2022-09-23T08:00:53.837Z,6.90
2022-09-23T08:03:23.111Z,5.62
2022-09-23T08:05:53.682Z,6.78
2022-09-23T08:08:23.383Z,3.72
2022-09-23T08:10:52.172Z,4.35
2022-09-23T08:13:21.256Z,4.00
2022-09-23T08:15:55.247Z,2.65
2022-09-23T08:18:21.634Z,3.22
2022-09-23T08:20:51.128Z,4.22
2022-09-23T08:23:20.881Z,3.80
2022-09-23T08:25:59.780Z,3.17
2022-09-23T08:28:29.108Z,3.52
2022-09-23T08:30:58.226Z,3.40
2022-09-23T08:33:28.148Z,6.35
2022-09-23T08:36:02.253Z,5.65
2022-09-23T08:38:30.897Z,3.87
2022-09-23T08:41:37.172Z,7.40
2022-09-23T08:44:24.810Z,7.50
2022-09-23T08:47:21.144Z,7.92
2022-09-23T08:50:01.271Z,7.17
2022-09-23T08:52:39.149Z,5.20
2022-09-23T08:55:12.100Z,8.58
2022-09-23T08:58:26.711Z,7.00
2022-09-23T09:01:23.778Z,8.00
2022-09-23T09:04:09.438Z,11.12
2022-09-23T09:06:53.014Z,6.37
2022-09-23T09:09:26.039Z,5.37
2022-09-23T09:12:01.834Z,7.85
2022-09-23T09:14:45.814Z,4.62
2022-09-23T09:17:31.737Z,5.97
2022-09-23T09:20:57.869Z,5.80
2022-09-23T09:23:38.408Z,5.03
2022-09-23T09:26:12.247Z,9.08
2022-09-23T09:28:52.544Z,7.67
2022-09-23T09:31:35.759Z,8.68
2022-09-23T09:34:15.672Z,7.35
2022-09-23T09:36:57.672Z,6.17
2022-09-23T09:39:30.609Z,6.55
2022-09-23T09:42:00.577Z,7.60
2022-09-23T09:44:53.349Z,5.95
2022-09-23T09:47:46.762Z,6.83
2022-09-23T09:50:39.892Z,7.22
2022-09-23T09:53:25.999Z,7.25
2022-09-23T09:56:08.942Z,8.50
2022-09-23T09:58:54.015Z,6.70
2022-09-23T10:01:29.777Z,9.53
2022-09-23T10:04:04.646Z,7.08
2022-09-23T10:06:35.382Z,7.53
2022-09-23T10:09:16.702Z,7.47
2022-09-23T10:12:10.926Z,5.62
2022-09-23T10:14:39.877Z,7.80
2022-09-23T10:17:21.377Z,7.65
2022-09-23T10:19:56.583Z,6.92
2022-09-23T10:22:29.731Z,8.40
2022-09-23T10:25:03.463Z,9.18
2022-09-23T10:27:34.649Z,10.50
2022-09-23T10:30:24.169Z,7.12
2022-09-23T10:32:54.557Z,9.03
2022-09-23T10:35:26.343Z,5.35
2022-09-23T10:38:01.515Z,4.40
2022-09-23T10:40:57.725Z,3.40
2022-09-23T10:44:11.485Z,7.85
2022-09-23T10:46:46.684Z,5.37
2022-09-23T10:49:27.245Z,8.23
2022-09-23T10:52:38.848Z,13.08
2022-09-23T10:55:42.130Z,6.72
2022-09-23T10:58:51.802Z,8.00
2022-09-23T11:01:53.044Z,6.12
2022-09-23T11:04:53.787Z,8.68
2022-09-23T11:08:04.091Z,6.15
2022-09-23T11:10:51.886Z,5.55
2022-09-23T11:13:38.332Z,5.87
2022-09-23T11:16:38.611Z,8.63
2022-09-23T11:19:34.234Z,8.85
2022-09-23T11:22:20.610Z,8.95
2022-09-23T11:25:16.438Z,8.95
2022-09-23T11:28:19.449Z,6.15
2022-09-23T11:31:24.400Z,4.75
2022-09-23T11:33:59.455Z,4.45
2022-09-23T11:36:41.266Z,5.12
2022-09-23T11:39:29.737Z,5.05
2022-09-23T11:41:59.960Z,5.42
2022-09-23T11:44:42.697Z,6.20
2022-09-23T11:47:30.176Z,4.60
2022-09-23T11:50:27.949Z,3.80
2022-09-23T11:53:24.981Z,3.35
2022-09-23T11:56:04.103Z,1.92
2022-09-23T11:58:43.473Z,2.12
2022-09-23T12:01:37.204Z,1.92
2022-09-23T12:04:32.129Z,3.08
2022-09-23T12:07:14.908Z,3.15
2022-09-23T12:10:05.487Z,3.90
2022-09-23T12:13:06.439Z,6.42
2022-09-23T12:16:01.804Z,4.03
2022-09-23T12:18:51.944Z,2.75
2022-09-23T12:21:51.467Z,3.12
2022-09-23T12:24:35.849Z,1.92
2022-09-23T12:27:10.375Z,3.77
2022-09-23T12:29:40.617Z,2.50
2022-09-23T12:32:12.830Z,3.77
2022-09-23T12:34:47.565Z,4.17
2022-09-23T12:37:37.641Z,2.35
2022-09-23T12:40:24.766Z,3.17
2022-09-23T12:42:54.253Z,3.77
2022-09-23T12:45:34.527Z,3.10
2022-09-23T12:48:26.403Z,2.42
2022-09-23T12:51:13.070Z,2.33
2022-09-23T12:54:23.059Z,1.77
2022-09-23T12:56:57.453Z,3.20
2022-09-23T12:59:29.656Z,1.42
2022-09-23T13:02:00.468Z,1.90
2022-09-23T13:05:07.415Z,3.92
2022-09-23T13:07:43.383Z,2.45
2022-09-23T13:10:35.355Z,2.00
2022-09-23T13:13:06.310Z,1.87
2022-09-23T13:15:36.821Z,3.15
2022-09-23T13:18:25.960Z,2.95
2022-09-23T13:20:56.530Z,3.80
2022-09-23T13:23:27.125Z,5.15
2022-09-23T13:26:01.558Z,3.42
2022-09-23T13:28:52.979Z,3.42
2022-09-23T13:31:22.534Z,7.35
2022-09-23T13:33:55.131Z,4.97
2022-09-23T13:36:24.188Z,4.40
2022-09-23T13:38:54.271Z,6.58
2022-09-23T13:41:26.052Z,2.25
2022-09-23T13:43:59.284Z,3.52
2022-09-23T13:46:30.541Z,1.82
2022-09-23T13:48:59.323Z,6.60
2022-09-23T13:51:31.537Z,3.05
2022-09-23T13:54:04.249Z,4.67
2022-09-23T13:56:37.354Z,4.42
2022-09-23T13:59:27.657Z,3.15
2022-09-23T14:02:15.104Z,6.28
2022-09-23T14:07:15.631Z,9.13
2022-09-23T14:09:47.896Z,8.75
2022-09-23T14:12:20.277Z,10.13
2022-09-23T14:14:51.402Z,6.30
2022-09-23T14:17:22.604Z,5.80
2022-09-23T14:19:51.999Z,7.25
2022-09-23T14:22:26.179Z,4.37
2022-09-23T14:24:55.827Z,5.60
2022-09-23T14:27:36.155Z,4.85
2022-09-23T14:30:05.757Z,7.65
2022-09-23T14:32:35.529Z,6.20
2022-09-23T14:35:09.833Z,5.12
2022-09-23T14:37:49.772Z,5.22
2022-09-23T14:40:30.344Z,3.37
2022-09-23T14:43:26.965Z,4.30
2022-09-23T14:45:59.759Z,3.95
2022-09-23T14:48:33.897Z,3.47
2022-09-23T14:51:07.573Z,3.33
2022-09-23T14:53:45.297Z,4.33
2022-09-23T14:56:19.206Z,3.95
2022-09-23T14:59:00.576Z,3.22
2022-09-23T15:01:37.696Z,5.30
2022-09-23T15:04:23.597Z,4.95
2022-09-23T15:07:06.122Z,5.25
2022-09-23T15:09:41.805Z,4.28
2022-09-23T15:12:20.480Z,7.00
2022-09-23T15:14:51.514Z,6.87
2022-09-23T15:17:37.190Z,5.95
2022-09-23T15:20:13.093Z,4.72
2022-09-23T15:22:48.235Z,5.35
2022-09-23T15:25:29.963Z,5.05
2022-09-23T15:28:02.799Z,4.55
2022-09-23T15:30:31.954Z,6.62
2022-09-23T15:33:01.185Z,4.87
2022-09-23T15:35:31.714Z,6.35
2022-09-23T15:38:01.864Z,8.83
2022-09-23T15:40:33.981Z,25.55
2022-09-23T15:43:20.180Z,22.10
2022-09-23T15:45:55.437Z,14.10
2022-09-23T15:48:31.442Z,12.40
2022-09-23T15:51:04.503Z,6.30
2022-09-23T15:53:33.747Z,4.92
2022-09-23T15:56:04.032Z,4.97
2022-09-23T15:58:34.973Z,5.37
2022-09-23T16:01:04.853Z,5.87
2022-09-23T16:03:34.123Z,5.00
2022-09-23T16:06:04.190Z,4.50
2022-09-23T16:08:33.508Z,4.00
2022-09-23T16:11:05.767Z,10.15
2022-09-23T16:13:34.498Z,4.12
2022-09-23T16:16:03.957Z,4.35
2022-09-23T16:18:33.069Z,4.58
2022-09-23T16:21:09.433Z,5.25
2022-09-23T16:23:38.400Z,7.60
2022-09-23T16:26:17.260Z,15.40
2022-09-23T16:28:48.520Z,3.22
2022-09-23T16:31:17.901Z,4.00
2022-09-23T16:33:47.747Z,5.62
2022-09-23T16:36:31.139Z,4.92
2022-09-23T16:39:03.129Z,6.03
2022-09-23T16:41:33.081Z,5.08
2022-09-23T16:44:04.611Z,10.35
2022-09-23T16:46:34.272Z,6.80
2022-09-23T16:49:03.231Z,8.53
2022-09-23T16:51:35.524Z,7.65
2022-09-23T16:54:11.010Z,6.47
2022-09-23T16:56:46.010Z,9.93
2022-09-23T16:59:15.493Z,9.63
2022-09-23T17:02:02.854Z,8.28
2022-09-23T17:04:32.659Z,11.88
2022-09-23T17:07:02.363Z,6.33
2022-09-23T17:09:33.562Z,5.62
2022-09-23T17:12:21.545Z,10.18
2022-09-23T17:14:52.228Z,5.55
2022-09-23T17:17:23.173Z,10.20
2022-09-23T17:19:54.548Z,7.20
2022-09-23T17:22:24.129Z,6.17
2022-09-23T17:24:53.118Z,8.95
2022-09-23T17:27:24.632Z,6.83
2022-09-23T17:29:54.442Z,5.85
2022-09-23T17:32:23.388Z,8.13
2022-09-23T17:34:52.882Z,5.28
2022-09-23T17:37:22.780Z,8.35
2022-09-23T17:39:53.473Z,6.53
2022-09-23T17:42:22.289Z,7.22
2022-09-23T17:44:50.945Z,6.75
2022-09-23T17:47:20.344Z,5.85
2022-09-23T17:49:49.535Z,5.72
2022-09-23T17:52:19.231Z,7.53
2022-09-23T17:54:48.159Z,9.93
2022-09-23T17:57:16.908Z,6.55
2022-09-23T17:59:45.620Z,7.28
2022-09-23T18:02:15.809Z,6.37
2022-09-23T18:04:44.852Z,6.12
2022-09-23T18:07:13.616Z,5.85
2022-09-23T18:09:42.508Z,9.60
2022-09-23T18:12:11.569Z,6.80
2022-09-23T18:14:42.224Z,7.83
2022-09-23T18:17:12.102Z,6.78
2022-09-23T18:19:41.075Z,7.87
2022-09-23T18:22:10.446Z,9.15
2022-09-23T18:24:40.920Z,10.25
2022-09-23T18:27:10.533Z,8.70
2022-09-23T18:29:39.981Z,7.17
2022-09-23T18:32:14.222Z,8.50
2022-09-23T18:34:43.360Z,6.20
2022-09-23T18:37:16.105Z,8.70
2022-09-23T18:39:43.261Z,9.45
2022-09-23T18:42:13.029Z,6.53
2022-09-23T18:44:42.935Z,6.65
2022-09-23T18:47:14.466Z,5.42
2022-09-23T18:50:01.877Z,5.22
2022-09-23T18:52:31.339Z,4.50
2022-09-23T18:55:01.211Z,7.28
2022-09-23T18:57:30.388Z,5.20
2022-09-23T19:00:00.139Z,6.17
2022-09-23T19:02:29.104Z,5.40
2022-09-23T19:04:57.988Z,6.25
2022-09-23T19:07:26.579Z,5.22
2022-09-23T19:09:56.100Z,7.90
2022-09-23T19:12:25.271Z,5.85
2022-09-23T19:14:55.592Z,7.15
2022-09-23T19:17:24.528Z,4.78
2022-09-23T19:19:55.418Z,4.62
2022-09-23T19:22:24.243Z,6.35
2022-09-23T19:24:53.025Z,4.97
2022-09-23T19:27:23.145Z,6.37
2022-09-23T19:30:05.717Z,4.80
2022-09-23T19:32:35.685Z,4.80
2022-09-23T19:35:06.766Z,4.40
2022-09-23T19:37:35.566Z,4.58
2022-09-23T19:40:06.143Z,4.72
2022-09-23T19:42:38.519Z,3.75
2022-09-23T19:45:08.138Z,4.47
2022-09-23T19:47:38.101Z,4.95
2022-09-23T19:50:09.000Z,5.67
2022-09-23T19:52:38.431Z,5.00
2022-09-23T19:55:10.137Z,4.60
2022-09-23T19:57:42.072Z,5.15
2022-09-23T20:00:15.204Z,5.78
2022-09-23T20:02:44.134Z,5.47
2022-09-23T20:05:13.846Z,3.92
2022-09-23T20:07:43.418Z,4.87
2022-09-23T20:10:13.297Z,4.20
2022-09-23T20:12:42.679Z,6.15
2022-09-23T20:15:11.724Z,4.80
2022-09-23T20:17:41.298Z,5.03
2022-09-23T20:20:11.309Z,3.65
2022-09-23T20:22:40.192Z,3.37
2022-09-23T20:25:12.314Z,4.45
2022-09-23T20:27:41.644Z,3.40
2022-09-23T20:30:11.550Z,4.15
2022-09-23T20:32:44.480Z,3.35
2022-09-23T20:35:11.247Z,4.28
2022-09-23T20:37:40.720Z,3.20
2022-09-23T20:40:11.020Z,4.28
2022-09-23T20:42:42.380Z,3.92
2022-09-23T20:45:11.986Z,5.12
2022-09-23T20:47:42.711Z,5.25
2022-09-23T20:50:12.462Z,4.60
2022-09-23T20:52:41.826Z,3.70
2022-09-23T20:55:10.525Z,4.78
2022-09-23T20:57:40.911Z,5.05
2022-09-23T21:00:11.767Z,5.28
2022-09-23T21:02:42.242Z,4.45
2022-09-23T21:05:11.059Z,4.92
2022-09-23T21:07:39.860Z,4.42
2022-09-23T21:10:09.773Z,5.33
2022-09-23T21:12:38.662Z,3.67
2022-09-23T21:15:09.218Z,4.20
2022-09-23T21:17:39.261Z,3.17
2022-09-23T21:20:09.264Z,4.35
2022-09-23T21:22:39.946Z,4.97
2022-09-23T21:25:27.410Z,4.87
2022-09-23T21:27:41.712Z,4.28
2022-09-23T21:30:12.560Z,6.22
2022-09-23T21:32:41.994Z,5.58
2022-09-23T21:35:10.628Z,4.70
2022-09-23T21:37:40.002Z,4.15
2022-09-23T21:40:29.123Z,5.33
2022-09-23T21:43:00.856Z,4.22
2022-09-23T21:45:31.534Z,5.85
2022-09-23T21:48:00.837Z,4.05
2022-09-23T21:50:29.627Z,3.92
2022-09-23T21:53:00.841Z,4.62
2022-09-23T21:55:30.364Z,3.75
2022-09-23T21:57:59.091Z,4.47
2022-09-23T22:00:27.954Z,5.67
2022-09-23T22:02:57.794Z,4.17
2022-09-23T22:05:27.105Z,4.03
2022-09-23T22:07:56.048Z,4.25
2022-09-23T22:10:27.055Z,5.87
2022-09-23T22:12:58.618Z,5.20
2022-09-23T22:15:28.131Z,5.12
2022-09-23T22:17:58.300Z,5.45
2022-09-23T22:20:28.916Z,4.58
2022-09-23T22:22:57.707Z,4.83
2022-09-23T22:25:26.930Z,5.53
2022-09-23T22:28:13.981Z,5.08
2022-09-23T22:31:01.486Z,4.35
2022-09-23T22:33:30.685Z,6.65
2022-09-23T22:36:03.481Z,5.37
2022-09-23T22:38:35.401Z,6.10
2022-09-23T22:41:05.146Z,4.70
2022-09-23T22:43:34.436Z,4.17
2022-09-23T22:46:05.287Z,6.85
2022-09-23T22:48:34.577Z,5.10
2022-09-23T22:51:05.558Z,4.33
2022-09-23T22:53:34.911Z,5.25
2022-09-23T22:56:05.607Z,4.40
2022-09-23T22:58:34.785Z,4.53
2022-09-23T23:01:03.939Z,5.25
2022-09-23T23:03:35.251Z,6.65
2022-09-23T23:06:04.558Z,7.85
2022-09-23T23:08:35.130Z,5.00
2022-09-23T23:11:09.574Z,5.72
2022-09-23T23:13:41.657Z,6.25
2022-09-23T23:16:12.046Z,8.60
2022-09-23T23:18:43.129Z,5.97
2022-09-23T23:21:15.452Z,7.05
2022-09-23T23:23:51.670Z,6.33
2022-09-23T23:26:25.821Z,5.10
2022-09-23T23:28:54.875Z,6.28
2022-09-23T23:31:26.765Z,7.33
2022-09-23T23:33:56.980Z,5.22
2022-09-23T23:36:25.848Z,5.33
2022-09-23T23:38:54.554Z,5.53
2022-09-23T23:41:23.389Z,5.10
2022-09-23T23:43:57.933Z,5.90
2022-09-23T23:46:28.082Z,5.72
2022-09-23T23:48:57.100Z,6.72
2022-09-23T23:51:29.514Z,5.35
2022-09-23T23:53:58.631Z,5.97
2022-09-23T23:56:27.235Z,5.97
2022-09-23T23:58:59.483Z,4.78
